Time;durP1;ratioP1;P1;durP2;ratioP2;P2;SDS_P1;SDS_P2;PMS_P1;PMS_P2;Temp;Humidity;BMP_temperature;BMP_pressure;BME280_temperature;BME280_humidity;BME280_pressure;Samples;Min_cycle;Max_cycle;Signal;HPM_P1;HPM_P2
2022/03/28 00:01:51;;;;;;;55.80;26.17;;;;;;;5.13;100.00;101237.06;5015590;28;20090;-82
2022/03/28 00:04:17;;;;;;;60.13;25.80;;;;;;;5.15;100.00;101239.75;5015821;28;20037;-82
2022/03/28 00:06:48;;;;;;;60.65;26.10;;;;;;;5.03;100.00;101236.13;5017396;28;20022;-82
2022/03/28 00:09:13;;;;;;;59.38;25.67;;;;;;;5.03;100.00;101236.13;5015434;28;20026;-82
2022/03/28 00:11:46;;;;;;;63.30;26.67;;;;;;;4.98;100.00;101237.84;5015696;28;20029;-82
2022/03/28 00:14:11;;;;;;;61.95;25.80;;;;;;;4.94;100.00;101230.75;5017803;28;20088;-82
2022/03/28 00:16:37;;;;;;;53.85;25.30;;;;;;;4.89;100.00;101224.53;5015492;28;20018;-82
2022/03/28 00:19:05;;;;;;;61.80;25.33;;;;;;;4.85;100.00;101226.25;5014801;28;20018;-82
2022/03/28 00:21:31;;;;;;;55.97;25.63;;;;;;;4.77;100.00;101217.34;5016423;28;20022;-82
2022/03/28 00:23:56;;;;;;;58.83;25.88;;;;;;;4.75;100.00;101222.63;5017598;28;20497;-81
2022/03/28 00:26:22;;;;;;;55.92;25.10;;;;;;;4.66;100.00;101226.09;5015368;28;20076;-81
2022/03/28 00:28:47;;;;;;;54.75;24.63;;;;;;;4.54;100.00;101218.91;5017392;28;20026;-81
2022/03/28 00:31:13;;;;;;;64.60;26.58;;;;;;;4.42;100.00;101217.03;5016094;28;20053;-82
2022/03/28 00:33:41;;;;;;;62.92;27.20;;;;;;;4.40;100.00;101215.25;5017132;28;20021;-81
2022/03/28 00:36:09;;;;;;;63.95;27.25;;;;;;;4.29;100.00;101205.44;5016522;28;20025;-82
2022/03/28 00:38:35;;;;;;;63.45;25.58;;;;;;;4.24;100.00;101207.13;5015342;28;20022;-82
2022/03/28 00:41:04;;;;;;;61.10;25.98;;;;;;;4.27;100.00;101203.66;5017676;28;20036;-82
2022/03/28 00:43:30;;;;;;;69.78;27.65;;;;;;;4.33;100.00;101207.22;5016940;28;20485;-81
2022/03/28 00:45:55;;;;;;;65.30;27.25;;;;;;;4.36;100.00;101201.97;5017701;28;20104;-82
2022/03/28 00:48:26;;;;;;;63.30;26.55;;;;;;;4.30;100.00;101204.59;5017789;28;20034;-81
2022/03/28 00:50:56;;;;;;;65.28;26.77;;;;;;;4.30;100.00;101191.34;5016139;28;20018;-81
2022/03/28 00:53:24;;;;;;;67.72;27.02;;;;;;;4.36;100.00;101190.50;5018739;28;20029;-82
2022/03/28 00:55:50;;;;;;;62.47;26.33;;;;;;;4.37;100.00;101181.72;5017132;28;20028;-82
2022/03/28 00:58:15;;;;;;;53.03;23.42;;;;;;;4.43;100.00;101180.91;5017672;28;20053;-82
2022/03/28 01:00:43;;;;;;;56.53;24.30;;;;;;;4.40;100.00;101186.16;5016094;28;20511;-82
2022/03/28 01:03:08;;;;;;;54.00;24.30;;;;;;;4.40;100.00;101179.13;5017813;28;20468;-81
2022/03/28 01:05:34;;;;;;;57.38;24.02;;;;;;;4.36;100.00;101188.75;5016765;28;20028;-81
2022/03/28 01:08:00;;;;;;;57.13;24.10;;;;;;;4.36;100.00;101179.94;5014668;28;20097;-82
2022/03/28 01:10:26;;;;;;;62.53;26.67;;;;;;;4.37;100.00;101173.78;5015346;28;20030;-81
2022/03/28 01:12:55;;;;;;;56.55;26.30;;;;;;;4.43;100.00;101170.31;5016938;28;20052;-81
2022/03/28 01:15:21;;;;;;;56.50;25.02;;;;;;;4.40;100.00;101175.56;5016539;28;20025;-83
2022/03/28 01:18:08;;;;;;;56.15;23.98;;;;;;;4.43;100.00;101175.63;5018144;28;20025;-83
2022/03/28 01:20:37;;;;;;;51.97;23.63;;;;;;;4.44;100.00;101178.25;5017600;28;20026;-82
2022/03/28 01:23:07;;;;;;;48.45;24.02;;;;;;;4.39;100.00;101168.50;5018878;28;20049;-83
2022/03/28 01:25:33;;;;;;;52.58;23.20;;;;;;;4.28;100.00;101166.63;5018231;28;20029;-83
2022/03/28 01:28:00;;;;;;;49.63;21.30;;;;;;;4.22;100.00;101159.56;5017065;28;20029;-82
2022/03/28 01:30:28;;;;;;;47.90;22.10;;;;;;;4.15;100.00;101159.47;5018219;28;20036;-83
2022/03/28 01:32:56;;;;;;;45.15;22.10;;;;;;;4.07;100.00;101152.31;5017402;28;20021;-81
2022/03/28 01:35:33;;;;;;;46.92;22.08;;;;;;;4.06;100.00;101147.91;5017794;28;20515;-84
2022/03/28 01:38:00;;;;;;;46.08;21.95;;;;;;;4.07;100.00;101139.09;5016944;28;20433;-82
2022/03/28 01:40:31;;;;;;;44.30;21.40;;;;;;;4.05;100.00;101129.38;5017092;28;20038;-83
2022/03/28 01:42:57;;;;;;;50.47;22.38;;;;;;;4.02;100.00;101123.19;5015646;28;20113;-83
2022/03/28 01:45:23;;;;;;;51.83;22.67;;;;;;;4.00;100.00;101132.88;5019053;28;20114;-83
2022/03/28 01:47:52;;;;;;;59.88;24.50;;;;;;;4.05;100.00;101127.63;5021433;28;20121;-83
2022/03/28 01:50:18;;;;;;;50.97;23.05;;;;;;;4.03;100.00;101121.44;5024829;28;20022;-83
2022/03/28 01:52:44;;;;;;;52.40;23.60;;;;;;;4.05;100.00;101122.34;5026498;28;20043;-83
2022/03/28 01:55:10;;;;;;;51.05;23.17;;;;;;;4.03;100.00;101118.81;5026998;28;20026;-84
2022/03/28 01:57:39;;;;;;;56.17;25.63;;;;;;;4.00;100.00;101119.66;5026591;28;20025;-83
2022/03/28 02:00:07;;;;;;;53.90;23.83;;;;;;;3.97;100.00;101114.31;5023539;28;20017;-83
2022/03/28 02:02:32;;;;;;;55.00;24.65;;;;;;;3.94;100.00;101108.13;5022761;28;20039;-83
2022/03/28 02:04:58;;;;;;;57.95;24.55;;;;;;;3.91;100.00;101104.59;5022466;28;20022;-83
2022/03/28 02:07:23;;;;;;;57.13;24.80;;;;;;;3.86;100.00;101106.31;5022563;28;20038;-83
2022/03/28 02:09:51;;;;;;;57.97;24.90;;;;;;;3.85;100.00;101107.16;5021542;28;20048;-83
2022/03/28 02:12:17;;;;;;;61.33;24.20;;;;;;;3.85;100.00;101108.91;5023797;28;20021;-82
2022/03/28 02:14:45;;;;;;;63.85;25.45;;;;;;;3.74;100.00;101106.13;5022402;28;20033;-81
2022/03/28 02:17:12;;;;;;;61.88;26.13;;;;;;;3.84;100.00;101105.38;5022396;28;20033;-82
2022/03/28 02:19:38;;;;;;;67.13;27.30;;;;;;;3.85;100.00;101093.94;5019562;28;20451;-83
2022/03/28 02:22:04;;;;;;;62.10;25.02;;;;;;;3.73;100.00;101101.75;5018071;28;20551;-83
2022/03/28 02:24:29;;;;;;;59.53;25.17;;;;;;;3.67;100.00;101100.81;5019438;28;20026;-82
2022/03/28 02:26:54;;;;;;;63.90;25.50;;;;;;;3.62;100.00;101091.94;5020752;28;20137;-84
2022/03/28 02:29:23;;;;;;;62.13;26.42;;;;;;;3.60;100.00;101085.75;5022375;28;20194;-83
2022/03/28 02:31:48;;;;;;;62.55;25.15;;;;;;;3.62;100.00;101091.94;5022686;28;20025;-83
2022/03/28 02:34:14;;;;;;;59.15;25.80;;;;;;;3.52;100.00;101079.50;5020722;28;20541;-83
2022/03/28 02:36:39;;;;;;;67.13;27.40;;;;;;;3.51;100.00;101082.97;5021308;28;20115;-82
2022/03/28 02:39:05;;;;;;;71.07;29.30;;;;;;;3.59;100.00;101086.59;5020964;28;20522;-83
2022/03/28 02:41:31;;;;;;;69.22;27.75;;;;;;;3.61;100.00;101079.59;5022370;28;20029;-84
2022/03/28 02:43:56;;;;;;;68.30;27.15;;;;;;;3.51;100.00;101077.69;5022846;28;20025;-83
2022/03/28 02:46:22;;;;;;;72.68;26.75;;;;;;;3.38;100.00;101072.28;5021354;28;20106;-83
2022/03/28 02:48:47;;;;;;;72.72;26.88;;;;;;;3.32;100.00;101072.22;5041310;22;20525;-74
2022/03/28 02:51:12;;;;;;;78.47;29.17;;;;;;;3.34;100.00;101065.19;5035684;28;20511;-73
2022/03/28 02:53:38;;;;;;;83.53;30.77;;;;;;;3.31;100.00;101059.88;5035454;28;20116;-73
2022/03/28 02:56:03;;;;;;;85.95;32.08;;;;;;;3.26;100.00;101057.16;5035441;28;20037;-74
2022/03/28 02:58:28;;;;;;;84.13;32.08;;;;;;;3.20;100.00;101057.09;5035414;28;20057;-73
2022/03/28 03:00:54;;;;;;;89.45;31.60;;;;;;;3.11;100.00;101052.59;5035682;28;20075;-73
2022/03/28 03:03:19;;;;;;;78.20;30.75;;;;;;;3.06;100.00;101054.28;5033459;28;20467;-74
2022/03/28 03:05:46;;;;;;;87.43;32.05;;;;;;;3.01;100.00;101057.75;5035476;28;20025;-74
2022/03/28 03:08:11;;;;;;;90.97;32.78;;;;;;;3.05;100.00;101052.50;5035259;28;20554;-73
2022/03/28 03:10:37;;;;;;;92.10;31.65;;;;;;;2.98;100.00;101041.88;5035339;28;20113;-73
2022/03/28 03:13:02;;;;;;;85.55;33.53;;;;;;;2.98;100.00;101055.06;5035651;28;20017;-73
2022/03/28 03:15:27;;;;;;;101.35;33.10;;;;;;;2.87;100.00;101046.09;5035018;28;20017;-73
2022/03/28 03:17:53;;;;;;;86.88;31.40;;;;;;;2.79;100.00;101045.97;5035124;28;20021;-73
2022/03/28 03:20:18;;;;;;;83.03;30.85;;;;;;;2.73;100.00;101046.78;5035139;28;20060;-73
2022/03/28 03:22:43;;;;;;;98.43;32.65;;;;;;;2.77;100.00;101038.06;5034955;28;20032;-76
2022/03/28 03:25:09;;;;;;;96.45;32.70;;;;;;;2.76;100.00;101036.28;5034728;28;20108;-75
2022/03/28 03:27:38;;;;;;;90.68;31.25;;;;;;;2.69;100.00;101037.06;5034901;28;20368;-75
2022/03/28 03:30:09;;;;;;;98.05;33.33;;;;;;;2.66;100.00;101040.53;5033570;28;20030;-75
2022/03/28 03:32:36;;;;;;;100.78;33.25;;;;;;;2.66;100.00;101039.63;5034755;28;20529;-75
2022/03/28 03:35:02;;;;;;;94.00;32.33;;;;;;;2.63;100.00;101042.25;5033372;28;20045;-75
2022/03/28 03:37:28;;;;;;;101.75;35.92;;;;;;;2.65;100.00;101029.97;5034710;28;20036;-75
2022/03/28 03:39:53;;;;;;;95.93;32.65;;;;;;;2.59;100.00;101021.94;5034654;28;20399;-75
2022/03/28 03:42:19;;;;;;;93.50;31.77;;;;;;;2.51;100.00;101025.38;5034672;28;20029;-75
2022/03/28 03:44:44;;;;;;;92.03;30.50;;;;;;;2.50;100.00;101018.31;5034593;28;20029;-74
2022/03/28 03:47:09;;;;;;;98.07;32.58;;;;;;;2.37;100.00;101016.38;5034503;28;20437;-74
2022/03/28 03:49:34;;;;;;;106.40;30.25;;;;;;;2.25;100.00;101010.03;5034518;28;20040;-75
2022/03/28 03:52:00;;;;;;;146.27;31.70;;;;;;;2.07;100.00;101014.13;5034438;28;20026;-75
2022/03/28 03:54:25;;;;;;;97.43;32.00;;;;;;;2.03;100.00;101007.03;5034308;28;20025;-75
2022/03/28 03:56:50;;;;;;;94.55;31.92;;;;;;;2.06;100.00;101006.22;5034905;28;20026;-75
2022/03/28 03:59:15;;;;;;;120.55;32.88;;;;;;;1.97;100.00;101012.19;5034567;28;20467;-75
2022/03/28 04:01:41;;;;;;;88.60;30.48;;;;;;;1.87;100.00;101009.41;5034524;28;20033;-75
2022/03/28 04:04:06;;;;;;;101.20;28.30;;;;;;;1.83;100.00;101010.19;5034401;28;20032;-75
2022/03/28 04:06:31;;;;;;;95.72;30.25;;;;;;;1.81;100.00;101005.75;5034231;28;20025;-75
2022/03/28 04:08:57;;;;;;;107.03;32.50;;;;;;;1.87;100.00;101005.88;5034117;28;20028;-75
2022/03/28 04:11:22;;;;;;;134.15;34.33;;;;;;;1.93;100.00;101005.09;5032902;28;20035;-75
2022/03/28 04:13:47;;;;;;;103.78;31.90;;;;;;;1.96;100.00;100999.91;5033767;28;20021;-74
2022/03/28 04:16:12;;;;;;;114.88;32.17;;;;;;;1.87;100.00;101006.78;5033950;28;20028;-74
2022/03/28 04:18:38;;;;;;;99.80;31.60;;;;;;;1.88;100.00;101003.25;5034092;28;20063;-75
2022/03/28 04:21:03;;;;;;;97.75;32.53;;;;;;;1.88;100.00;100998.00;5032631;28;20552;-75
2022/03/28 04:23:28;;;;;;;92.45;29.65;;;;;;;1.82;100.00;101003.16;5033766;28;20027;-75
2022/03/28 04:25:54;;;;;;;85.70;28.67;;;;;;;1.62;100.00;101001.06;5033742;28;20427;-75
2022/03/28 04:28:19;;;;;;;98.30;31.58;;;;;;;1.72;100.00;100995.97;5034176;28;20056;-75
2022/03/28 04:30:45;;;;;;;93.50;33.90;;;;;;;1.79;100.00;100992.56;5033820;28;20449;-74
2022/03/28 04:33:11;;;;;;;99.75;32.47;;;;;;;1.72;100.00;100985.44;5032477;28;20022;-75
2022/03/28 04:35:37;;;;;;;93.60;31.23;;;;;;;1.69;100.00;100981.00;5032374;28;20026;-75
2022/03/28 04:38:05;;;;;;;114.43;29.70;;;;;;;1.61;100.00;100975.59;5033631;28;20159;-75
2022/03/28 04:40:33;;;;;;;98.60;31.10;;;;;;;1.60;100.00;100981.69;5033561;28;20026;-75
2022/03/28 04:42:58;;;;;;;103.82;33.58;;;;;;;1.66;100.00;100976.56;5032526;28;20458;-75
2022/03/28 04:45:24;;;;;;;102.88;33.97;;;;;;;1.69;100.00;100977.47;5032123;28;20517;-75
2022/03/28 04:47:49;;;;;;;103.82;33.42;;;;;;;1.75;100.00;100974.97;5033323;28;20470;-75
2022/03/28 04:50:14;;;;;;;102.63;35.80;;;;;;;1.85;100.00;100971.63;5033465;28;20028;-75
2022/03/28 04:52:40;;;;;;;93.60;32.25;;;;;;;1.85;100.00;100965.47;5033279;28;20379;-75
2022/03/28 04:55:05;;;;;;;91.32;32.00;;;;;;;1.86;100.00;100976.00;5033201;28;20068;-75
2022/03/28 04:57:31;;;;;;;79.03;29.52;;;;;;;1.73;100.00;100963.47;5033345;28;20021;-75
2022/03/28 04:59:57;;;;;;;75.97;28.55;;;;;;;1.64;100.00;100973.03;5033263;28;20025;-75
2022/03/28 05:02:22;;;;;;;83.47;29.17;;;;;;;1.67;100.00;100973.09;5033252;28;20024;-75
2022/03/28 05:04:47;;;;;;;77.03;29.70;;;;;;;1.69;100.00;100961.66;5031774;28;20025;-75
2022/03/28 05:07:21;;;;;;;73.18;27.92;;;;;;;1.75;100.00;100959.16;5033282;28;20498;-75
2022/03/28 05:09:46;;;;;;;71.68;29.38;;;;;;;1.69;100.00;100959.03;5033247;28;20028;-75
2022/03/28 05:12:12;;;;;;;80.05;28.52;;;;;;;1.63;100.00;100963.34;5031987;28;20029;-76
2022/03/28 05:14:37;;;;;;;74.57;27.58;;;;;;;1.64;100.00;100958.97;5033146;28;20457;-75
2022/03/28 05:17:02;;;;;;;74.32;26.95;;;;;;;1.58;100.00;100962.38;5033573;28;20459;-76
2022/03/28 05:19:28;;;;;;;79.75;26.58;;;;;;;1.56;100.00;100964.09;5033004;28;20017;-75
2022/03/28 05:21:53;;;;;;;77.75;25.95;;;;;;;1.53;100.00;100967.56;5033408;28;20021;-75
2022/03/28 05:24:21;;;;;;;76.20;26.23;;;;;;;1.50;100.00;100963.97;5033245;28;20030;-73
2022/03/28 05:26:46;;;;;;;75.60;26.40;;;;;;;1.44;100.00;100963.00;5035871;28;20021;-74
2022/03/28 05:29:11;;;;;;;71.53;25.27;;;;;;;1.43;100.00;100955.97;5037345;28;20022;-73
2022/03/28 05:31:36;;;;;;;68.65;24.27;;;;;;;1.44;100.00;100960.34;5035803;28;20025;-74
2022/03/28 05:34:01;;;;;;;67.65;25.63;;;;;;;1.43;100.00;100958.59;5035747;28;20493;-73
2022/03/28 05:36:28;;;;;;;63.13;24.23;;;;;;;1.45;100.00;100959.50;5036994;28;20018;-74
2022/03/28 05:38:53;;;;;;;64.28;24.02;;;;;;;1.53;100.00;100958.75;5036980;28;20087;-73
2022/03/28 05:41:18;;;;;;;57.63;22.52;;;;;;;1.48;100.00;100960.41;5036887;28;20441;-74
2022/03/28 05:43:44;;;;;;;70.50;24.70;;;;;;;1.42;100.00;100956.81;5037254;28;20054;-73
2022/03/28 05:46:10;;;;;;;62.83;22.90;;;;;;;1.45;100.00;100951.63;5036993;28;20067;-74
2022/03/28 05:48:35;;;;;;;65.50;30.23;;;;;;;1.41;100.00;100955.06;5036720;28;20452;-74
2022/03/28 05:51:02;;;;;;;67.75;25.17;;;;;;;1.41;100.00;100949.78;5036747;28;20025;-74
2022/03/28 05:53:27;;;;;;;73.20;24.92;;;;;;;1.33;100.00;100947.03;5036610;28;20095;-73
2022/03/28 05:55:53;;;;;;;75.20;24.85;;;;;;;1.42;100.00;100956.81;5036664;28;20053;-74
2022/03/28 05:58:18;;;;;;;75.28;25.83;;;;;;;1.46;100.00;100963.03;5035333;28;20266;-74
2022/03/28 06:00:43;;;;;;;75.35;24.98;;;;;;;1.49;100.00;100960.47;5036829;28;20378;-74
2022/03/28 06:03:09;;;;;;;87.65;26.70;;;;;;;1.49;100.00;100962.22;5036499;28;20505;-73
2022/03/28 06:05:37;;;;;;;77.30;25.25;;;;;;;1.54;100.00;100965.81;5036336;28;20402;-74
2022/03/28 06:08:04;;;;;;;65.30;24.52;;;;;;;1.53;100.00;100969.28;5035173;28;20037;-73
2022/03/28 06:10:29;;;;;;;76.22;25.25;;;;;;;1.53;100.00;100971.91;5036367;28;20025;-74
2022/03/28 06:12:55;;;;;;;57.75;22.92;;;;;;;1.59;100.00;100969.41;5036367;28;20029;-74
2022/03/28 06:15:20;;;;;;;64.93;22.42;;;;;;;1.55;100.00;100973.72;5036102;28;20045;-74
2022/03/28 06:17:46;;;;;;;61.88;23.13;;;;;;;1.51;100.00;100960.47;5036222;28;20490;-73
2022/03/28 06:20:12;;;;;;;51.67;22.42;;;;;;;1.52;100.00;100960.50;5035291;28;20032;-73
2022/03/28 06:22:37;;;;;;;58.33;23.52;;;;;;;1.53;100.00;100964.91;5036340;28;20017;-74
2022/03/28 06:25:04;;;;;;;69.70;23.77;;;;;;;1.55;100.00;100962.31;5035997;28;20034;-74
2022/03/28 06:27:29;;;;;;;66.53;24.65;;;;;;;1.55;100.00;100962.31;5036043;28;20104;-74
2022/03/28 06:29:55;;;;;;;73.15;25.48;;;;;;;1.62;100.00;100952.78;5036254;28;20107;-74
2022/03/28 06:32:20;;;;;;;73.53;26.15;;;;;;;1.62;100.00;100951.06;5036321;28;20044;-74
2022/03/28 06:34:48;;;;;;;81.40;26.13;;;;;;;1.72;100.00;100953.84;5035915;28;20476;-74
2022/03/28 06:37:14;;;;;;;79.80;27.50;;;;;;;1.76;100.00;100945.13;5035946;28;20029;-74
2022/03/28 06:39:39;;;;;;;86.85;27.15;;;;;;;1.69;100.00;100948.50;5034517;28;20021;-73
2022/03/28 06:42:05;;;;;;;112.32;30.20;;;;;;;1.84;100.00;100932.97;5034493;28;20083;-74
2022/03/28 06:44:30;;;;;;;113.03;30.45;;;;;;;1.87;100.00;100945.31;5035726;28;20482;-73
2022/03/28 06:46:56;;;;;;;161.68;33.08;;;;;;;1.82;100.00;100941.72;5034406;28;20061;-74
2022/03/28 06:49:21;;;;;;;193.25;33.47;;;;;;;1.84;100.00;100951.41;5035562;28;20037;-73
2022/03/28 06:51:47;;;;;;;147.25;30.52;;;;;;;1.84;100.00;100948.78;5035552;28;20075;-73
2022/03/28 06:54:14;;;;;;;120.95;28.45;;;;;;;1.84;100.00;100946.13;5034244;28;20021;-73
2022/03/28 06:56:41;;;;;;;94.68;30.60;;;;;;;1.93;100.00;100937.50;5035553;28;20104;-74
2022/03/28 06:59:08;;;;;;;127.95;30.90;;;;;;;2.07;100.00;100940.34;5035840;28;20060;-73
2022/03/28 07:01:33;;;;;;;90.65;30.13;;;;;;;1.97;100.00;100941.06;5035763;28;20021;-74
2022/03/28 07:03:59;;;;;;;122.10;28.50;;;;;;;1.96;100.00;100940.19;5035346;28;20411;-74
2022/03/28 07:06:25;;;;;;;189.32;32.17;;;;;;;1.97;100.00;100946.34;5035583;28;20383;-74
2022/03/28 07:08:51;;;;;;;93.22;29.75;;;;;;;2.03;100.00;100943.81;5035278;28;20032;-74
2022/03/28 07:11:17;;;;;;;357.77;39.20;;;;;;;1.84;100.00;100951.41;5033959;28;20029;-74
2022/03/28 07:13:42;;;;;;;279.77;35.47;;;;;;;1.87;100.00;100945.31;5033916;28;20028;-74
2022/03/28 07:16:08;;;;;;;342.88;37.30;;;;;;;1.80;100.00;100935.53;5035496;28;20022;-74
2022/03/28 07:18:34;;;;;;;104.72;26.15;;;;;;;1.72;100.00;100938.94;5035153;28;20025;-74
2022/03/28 07:20:59;;;;;;;302.13;33.22;;;;;;;1.90;100.00;100942.72;5035124;28;20021;-74
2022/03/28 07:23:24;;;;;;;253.02;29.88;;;;;;;1.75;100.00;100943.34;5035228;28;20033;-74
2022/03/28 07:25:50;;;;;;;104.57;26.40;;;;;;;1.92;100.00;100945.38;5034955;28;20051;-73
2022/03/28 07:28:17;;;;;;;107.63;29.05;;;;;;;2.09;100.00;100936.00;5035198;28;20029;-74
2022/03/28 07:30:42;;;;;;;311.90;35.53;;;;;;;1.99;100.00;100929.69;5035166;28;20552;-73
2022/03/28 07:33:08;;;;;;;339.00;35.22;;;;;;;1.80;100.00;100928.53;5035356;28;20060;-73
2022/03/28 07:35:35;;;;;;;362.30;40.70;;;;;;;1.84;100.00;100925.06;5034958;28;20014;-73
2022/03/28 07:38:01;;;;;;;344.42;40.05;;;;;;;1.93;100.00;100918.19;5033611;28;20502;-74
2022/03/28 07:40:27;;;;;;;73.13;30.20;;;;;;;2.12;100.00;100917.59;5034933;28;20036;-74
2022/03/28 07:42:53;;;;;;;204.18;34.25;;;;;;;2.26;100.00;100913.41;5034601;28;20030;-74
2022/03/28 07:45:20;;;;;;;163.75;32.05;;;;;;;2.26;100.00;100916.94;5034497;28;20112;-74
2022/03/28 07:47:46;;;;;;;145.30;32.10;;;;;;;2.31;100.00;100915.25;5034088;28;20030;-74
2022/03/28 07:50:12;;;;;;;130.73;32.85;;;;;;;2.29;100.00;100911.72;5034508;28;20482;-74
2022/03/28 07:52:38;;;;;;;75.32;28.73;;;;;;;2.52;100.00;100908.50;5034459;28;20120;-73
2022/03/28 07:55:05;;;;;;;71.70;29.85;;;;;;;2.72;100.00;100902.59;5033084;28;20025;-73
2022/03/28 07:57:31;;;;;;;69.43;31.25;;;;;;;2.77;100.00;100905.28;5034250;28;20075;-74
2022/03/28 07:59:56;;;;;;;89.32;28.83;;;;;;;2.56;100.00;100914.69;5034239;28;20030;-74
2022/03/28 08:02:23;;;;;;;51.80;27.92;;;;;;;2.78;100.00;100907.94;5034232;28;20075;-74
2022/03/28 08:04:48;;;;;;;109.07;29.40;;;;;;;2.65;100.00;100908.66;5032805;28;20069;-74
2022/03/28 08:07:14;;;;;;;103.75;28.25;;;;;;;2.68;100.00;100904.28;5034179;28;20103;-74
2022/03/28 08:09:40;;;;;;;47.42;24.40;;;;;;;2.73;100.00;100898.22;5034402;28;20087;-73
2022/03/28 08:12:06;;;;;;;47.42;25.08;;;;;;;2.84;100.00;100907.13;5034163;28;20025;-74
2022/03/28 08:14:31;;;;;;;53.25;26.08;;;;;;;3.07;100.00;100902.97;5032697;28;20018;-74
2022/03/28 08:16:57;;;;;;;47.15;27.20;;;;;;;3.09;100.00;100901.25;5032818;28;20071;-73
2022/03/28 08:19:23;;;;;;;51.45;26.30;;;;;;;2.88;100.00;100892.22;5032745;28;20026;-74
2022/03/28 08:21:49;;;;;;;50.10;25.33;;;;;;;3.13;100.00;100890.75;5032706;28;20021;-74
2022/03/28 08:24:14;;;;;;;55.33;29.52;;;;;;;3.46;100.00;100891.06;5034017;28;20022;-73
2022/03/28 08:26:40;;;;;;;42.65;24.92;;;;;;;3.36;100.00;100878.66;5033805;28;20148;-74
2022/03/28 08:29:06;;;;;;;44.30;25.13;;;;;;;3.64;100.00;100889.47;5033853;28;20022;-74
2022/03/28 08:31:32;;;;;;;36.33;22.25;;;;;;;3.63;100.00;100882.41;5033895;28;20496;-74
2022/03/28 08:33:58;;;;;;;42.75;23.55;;;;;;;3.79;100.00;100878.13;5033630;28;20025;-72
2022/03/28 08:36:23;;;;;;;38.67;20.98;;;;;;;3.94;100.00;100883.53;5033711;28;20140;-72
2022/03/28 08:38:48;;;;;;;34.40;19.92;;;;;;;4.00;100.00;100875.63;5033650;28;20025;-72
2022/03/28 08:41:17;;;;;;;32.38;19.65;;;;;;;4.01;100.00;100877.41;5032564;28;20037;-72
2022/03/28 08:43:42;;;;;;;35.80;19.58;;;;;;;4.13;100.00;100872.19;5033453;28;20025;-72
2022/03/28 08:46:09;;;;;;;32.30;19.13;;;;;;;4.07;100.00;100876.56;5033469;28;20386;-72
2022/03/28 08:48:42;;;;;;;31.48;18.02;;;;;;;4.11;100.00;100878.34;5074265;22;20538;-85
2022/03/28 08:51:43;;;;;;;33.65;17.35;;;;;;;4.30;100.00;100879.34;5039641;28;20029;-85
2022/03/28 08:54:22;;;;;;;30.60;18.42;;;;;;;4.60;100.00;100873.31;5038942;28;20056;-85
2022/03/28 08:57:00;;;;;;;32.97;18.00;;;;;;;4.63;100.00;100863.63;5040338;28;20022;-86
2022/03/28 08:59:53;;;;;;;33.15;18.48;;;;;;;4.68;100.00;100874.22;5037791;28;20029;-86
2022/03/28 09:02:57;;;;;;;28.52;16.52;;;;;;;4.77;100.00;100862.78;5025392;28;20096;-86
2022/03/28 09:08:41;;;;;;;30.52;17.38;;;;;;;5.17;100.00;100862.03;5027199;28;20052;-86
2022/03/28 09:11:36;;;;;;;30.23;16.85;;;;;;;5.36;100.00;100862.06;5040597;28;20025;-86
2022/03/28 09:14:13;;;;;;;31.73;16.95;;;;;;;5.43;100.00;100870.88;5038369;28;20037;-86
2022/03/28 09:17:01;;;;;;;31.83;18.27;;;;;;;5.47;100.00;100867.34;5039518;28;20029;-86
2022/03/28 09:20:04;;;;;;;31.90;17.63;;;;;;;5.11;100.00;100880.53;5034015;28;20041;-85
2022/03/28 09:22:55;;;;;;;30.33;18.85;;;;;;;5.27;100.00;100875.25;5036180;28;20025;-85
2022/03/28 09:25:47;;;;;;;35.80;20.50;;;;;;;5.37;100.00;100869.09;5036995;28;20022;-86
2022/03/28 09:28:50;;;;;;;34.03;21.02;;;;;;;5.57;100.00;100868.22;5006202;28;20040;-85
2022/03/28 09:31:48;;;;;;;35.72;19.77;;;;;;;5.38;100.00;100870.88;5036113;28;20033;-85
2022/03/28 09:34:45;;;;;;;33.70;20.23;;;;;;;5.46;100.00;100874.38;5037092;28;20041;-85
2022/03/28 09:37:16;;;;;;;36.03;19.30;;;;;;;5.65;100.00;100866.47;5003985;28;20120;-85
2022/03/28 09:40:07;;;;;;;33.60;18.98;;;;;;;5.86;100.00;100869.09;5039332;28;20479;-85
2022/03/28 09:42:50;;;;;;;31.42;17.27;;;;;;;6.02;100.00;100856.72;5011263;28;20033;-83
2022/03/28 09:45:48;;;;;;;;;;;;;;;;;;;;;
2022/03/28 09:48:29;;;;;;;29.95;18.40;;;;;;;6.57;100.00;100854.78;5040565;28;20081;-85
2022/03/28 09:51:07;;;;;;;47.20;18.00;;;;;;;6.75;100.00;100842.31;5038897;28;20032;-85
2022/03/28 09:53:49;;;;;;;28.88;17.75;;;;;;;6.84;100.00;100844.06;5036510;28;20045;-85
2022/03/28 09:56:27;;;;;;;33.58;16.77;;;;;;;7.11;100.00;100839.47;5033355;28;20029;-85
2022/03/28 09:59:21;;;;;;;29.98;15.77;;;;;;;7.40;100.00;100839.25;5036471;28;20029;-85
2022/03/28 10:01:49;;;;;;;28.17;15.23;;;;;;;7.32;100.00;100836.69;5037543;28;20025;-86
2022/03/28 10:04:28;;;;;;;28.17;15.35;;;;;;;7.57;100.00;100829.41;5042996;28;20025;-86
2022/03/28 10:10:03;;;;;;;29.02;15.13;;;;;;;8.16;100.00;100814.63;4990101;28;20035;-85
2022/03/28 10:12:41;;;;;;;30.27;14.55;;;;;;;8.87;100.00;100807.53;5047378;28;20066;-86
2022/03/28 10:15:28;;;;;;;27.50;14.52;;;;;;;8.96;100.00;100810.09;5045370;28;20482;-86
2022/03/28 10:18:07;;;;;;;26.50;13.68;;;;;;;9.00;100.00;100809.13;5045643;28;20022;-85
2022/03/28 10:20:41;;;;;;;24.77;14.30;;;;;;;8.91;100.00;100809.28;5045430;28;20030;-85
2022/03/28 10:23:24;;;;;;;22.95;13.95;;;;;;;9.00;100.00;100798.47;5041720;28;20104;-86
2022/03/28 10:25:58;;;;;;;27.65;13.45;;;;;;;9.02;100.00;100804.66;5041721;28;20041;-85
2022/03/28 10:28:42;;;;;;;31.17;14.95;;;;;;;9.63;97.72;100792.13;5041081;28;20076;-86
2022/03/28 10:31:11;;;;;;;27.42;13.30;;;;;;;9.88;98.99;100789.00;5037428;28;20058;-85
2022/03/28 10:37:41;;;;;;;22.42;12.50;;;;;;;9.70;96.39;100791.09;5041191;28;20359;-85
2022/03/28 10:40:40;;;;;;;27.98;14.20;;;;;;;10.06;100.00;100786.88;5039192;28;20067;-85
2022/03/28 10:43:39;;;;;;;21.70;12.27;;;;;;;10.30;97.18;100789.97;5013973;28;20095;-86
2022/03/28 10:46:40;;;;;;;23.63;11.85;;;;;;;10.51;96.75;100795.81;5040308;28;20095;-86
2022/03/28 10:49:47;;;;;;;25.08;11.55;;;;;;;10.56;96.26;100793.91;5011239;28;20048;-85
2022/03/28 10:52:35;;;;;;;25.27;12.15;;;;;;;10.36;95.34;100795.16;5038769;28;20038;-85
2022/03/28 10:55:06;;;;;;;26.70;13.25;;;;;;;10.64;95.50;100783.06;5040664;28;20037;-86
2022/03/28 10:57:48;;;;;;;27.67;13.55;;;;;;;10.67;94.15;100790.13;5039726;28;20053;-86
2022/03/28 11:00:42;;;;;;;28.92;12.88;;;;;;;10.59;95.05;100785.81;5040137;28;20048;-86
2022/03/28 11:07:03;;;;;;;24.27;12.02;;;;;;;11.56;89.81;100768.38;5037574;28;20277;-86
2022/03/28 11:09:58;;;;;;;22.17;11.52;;;;;;;12.27;88.21;100767.34;5017482;28;20406;-86
2022/03/28 11:12:37;;;;;;;23.10;11.30;;;;;;;12.39;86.51;100766.13;5035538;28;20033;-86
2022/03/28 11:15:59;;;;;;;23.13;11.20;;;;;;;12.29;84.15;100760.19;5037154;28;20112;-86
2022/03/28 11:18:28;;;;;;;19.77;10.05;;;;;;;12.78;85.67;100751.53;4960940;28;20455;-86
2022/03/28 11:21:22;;;;;;;23.42;11.43;;;;;;;13.03;84.61;100752.53;4960365;28;20121;-86
2022/03/28 11:24:12;;;;;;;22.00;11.65;;;;;;;12.04;86.30;100751.00;5022462;28;20037;-85
2022/03/28 11:26:49;;;;;;;21.27;11.75;;;;;;;11.52;87.85;100740.84;5036181;28;20029;-86
2022/03/28 11:29:38;;;;;;;20.20;10.95;;;;;;;12.28;88.71;100742.34;5035167;28;20405;-86
2022/03/28 11:35:32;;;;;;;27.50;12.60;;;;;;;12.30;84.66;100740.50;5035971;28;20514;-85
2022/03/28 11:38:16;;;;;;;24.98;12.15;;;;;;;12.20;85.51;100744.38;5036455;28;20029;-85
2022/03/28 11:40:58;;;;;;;23.83;11.85;;;;;;;12.83;84.37;100724.59;5035953;28;20029;-85